Time;durP1;ratioP1;P1;durP2;ratioP2;P2;SDS_P1;SDS_P2;PMS_P1;PMS_P2;Temp;Humidity;BMP_temperature;BMP_pressure;BME280_temperature;BME280_humidity;BME280_pressure;Samples;Min_cycle;Max_cycle;Signal;HPM_P1;HPM_P2
2022/11/15 00:06:11;;;;;;;0.20;0.00;;;17.20;99.90;;;;;;25535457;23;20373;-72
2022/11/15 00:16:15;;;;;;;0.20;0.10;;;18.00;99.90;;;;;;25535360;23;20369;-70
2022/11/15 00:26:20;;;;;;;0.20;0.00;;;17.90;99.90;;;;;;25509970;23;20369;-70
2022/11/15 00:36:24;;;;;;;0.20;0.05;;;17.80;99.90;;;;;;25507922;23;20365;-71
2022/11/15 00:46:29;;;;;;;0.20;0.00;;;18.10;99.90;;;;;;25534091;23;20424;-71
2022/11/15 00:56:33;;;;;;;0.20;0.00;;;17.90;99.90;;;;;;25535221;23;20380;-71
2022/11/15 01:06:39;;;;;;;0.20;0.00;;;18.50;99.90;;;;;;25531237;23;20385;-72
2022/11/15 01:16:42;;;;;;;0.20;0.00;;;18.20;99.90;;;;;;25534981;23;20373;-73
2022/11/15 01:26:47;;;;;;;0.20;0.00;;;17.90;99.90;;;;;;25533707;23;20378;-71
2022/11/15 01:36:51;;;;;;;0.20;0.10;;;17.70;99.90;;;;;;25541304;23;20361;-73
2022/11/15 01:46:57;;;;;;;0.20;0.00;;;17.30;99.90;;;;;;25540729;23;20388;-71
2022/11/15 01:57:03;;;;;;;0.20;0.00;;;17.60;99.90;;;;;;25542029;23;20381;-71
2022/11/15 02:07:11;;;;;;;0.20;0.00;;;18.10;99.90;;;;;;25540592;23;20383;-72
2022/11/15 02:17:31;;;;;;;0.20;0.00;;;18.20;99.90;;;;;;25540384;23;20454;-73
2022/11/15 02:28:19;;;;;;;0.20;0.00;;;18.20;99.90;;;;;;25515216;23;20396;-73
2022/11/15 02:38:34;;;;;;;0.20;0.10;;;18.20;99.90;;;;;;25540103;23;20377;-72
2022/11/15 02:48:39;;;;;;;0.20;0.00;;;17.90;99.90;;;;;;25538530;23;20372;-71
2022/11/15 02:59:01;;;;;;;0.20;0.00;;;18.00;99.90;;;;;;25538562;23;20376;-71
2022/11/15 03:09:10;;;;;;;0.20;0.00;;;17.80;99.90;;;;;;25513643;23;20389;-72
2022/11/15 03:19:23;;;;;;;0.20;0.10;;;17.30;99.90;;;;;;25536933;23;20377;-71
2022/11/15 03:29:31;;;;;;;0.20;0.00;;;17.50;99.90;;;;;;25536532;23;20381;-71
2022/11/15 03:39:36;;;;;;;0.20;0.00;;;17.70;99.90;;;;;;25537864;23;20377;-70
2022/11/15 03:49:45;;;;;;;0.20;0.00;;;17.80;99.90;;;;;;25536077;23;20374;-70
2022/11/15 03:59:50;;;;;;;0.20;0.00;;;17.70;99.90;;;;;;25508427;23;20377;-72
2022/11/15 04:10:03;;;;;;;0.20;0.10;;;18.10;99.90;;;;;;25534797;23;20376;-72
2022/11/15 04:30:33;;;;;;;0.20;0.00;;;18.20;99.90;;;;;;25509908;23;20376;-71
2022/11/15 04:40:40;;;;;;;0.20;0.00;;;18.30;99.90;;;;;;25533011;23;20373;-71
2022/11/15 04:50:44;;;;;;;0.20;0.10;;;18.40;99.90;;;;;;25535344;23;20365;-72
2022/11/15 05:00:50;;;;;;;0.20;0.00;;;18.40;99.90;;;;;;25531998;23;20539;-72
2022/11/15 05:10:53;;;;;;;0.20;0.00;;;18.50;99.90;;;;;;25506514;23;21761;-73
2022/11/15 05:21:04;;;;;;;0.20;0.10;;;18.30;99.90;;;;;;25530331;23;20432;-72
2022/11/15 05:31:10;;;;;;;0.20;0.00;;;17.90;99.90;;;;;;25534735;23;20388;-72
2022/11/15 05:41:21;;;;;;;0.20;0.10;;;17.60;99.90;;;;;;25532599;23;20373;-71
2022/11/15 05:51:25;;;;;;;0.20;0.00;;;17.50;99.90;;;;;;25505129;23;20449;-72
2022/11/15 06:01:31;;;;;;;0.20;0.00;;;17.50;99.90;;;;;;25507199;23;20413;-72
2022/11/15 06:11:35;;;;;;;0.20;0.00;;;17.70;99.90;;;;;;25506126;23;20376;-70
2022/11/15 06:21:40;;;;;;;0.20;0.00;;;17.70;99.90;;;;;;25510766;23;20381;-70
2022/11/15 06:31:44;;;;;;;0.20;0.00;;;17.60;99.90;;;;;;25536565;23;20412;-72
2022/11/15 06:41:49;;;;;;;0.20;0.00;;;17.80;99.90;;;;;;25537346;23;20385;-73
2022/11/15 06:51:53;;;;;;;0.20;0.10;;;17.70;99.90;;;;;;25533529;23;20368;-71
2022/11/15 07:01:59;;;;;;;0.20;0.00;;;17.70;99.90;;;;;;25526922;23;20384;-70
2022/11/15 07:12:02;;;;;;;0.20;0.10;;;17.90;99.90;;;;;;25480352;23;20361;-71
2022/11/15 07:22:11;;;;;;;0.20;0.10;;;17.90;99.90;;;;;;25532739;23;20407;-72
2022/11/15 07:32:15;;;;;;;0.20;0.00;;;18.10;99.90;;;;;;25531996;23;20362;-70
2022/11/15 07:52:42;;;;;;;0.20;0.00;;;18.70;99.90;;;;;;25502817;23;20413;-73
2022/11/15 08:02:47;;;;;;;0.20;0.00;;;19.20;99.90;;;;;;25506406;23;20388;-71
2022/11/15 08:12:59;;;;;;;0.20;0.00;;;19.10;99.90;;;;;;25527203;23;20388;-71
2022/11/15 08:23:06;;;;;;;0.20;0.00;;;19.10;99.90;;;;;;25527595;23;20365;-72
2022/11/15 08:33:12;;;;;;;0.20;0.00;;;19.30;99.90;;;;;;25505944;23;20391;-73
2022/11/15 08:43:17;;;;;;;0.20;0.10;;;18.90;99.90;;;;;;25530219;23;20389;-74
2022/11/15 08:53:21;;;;;;;0.20;0.10;;;18.90;99.90;;;;;;25508860;23;20397;-74
2022/11/15 09:03:35;;;;;;;0.20;0.00;;;19.40;99.90;;;;;;25530319;23;20381;-73
2022/11/15 09:13:39;;;;;;;0.20;0.00;;;20.20;99.90;;;;;;25481007;23;20440;-73
2022/11/15 09:23:44;;;;;;;0.20;0.00;;;20.30;99.90;;;;;;25530619;23;20369;-72
2022/11/15 09:33:48;;;;;;;0.20;0.00;;;20.60;99.90;;;;;;25503319;23;20369;-74
2022/11/15 09:44:03;;;;;;;0.20;0.00;;;21.50;99.90;;;;;;25530043;23;20396;-75
2022/11/15 09:54:13;;;;;;;0.20;0.00;;;21.20;99.90;;;;;;25477927;23;20370;-73
2022/11/15 10:04:40;;;;;;;0.20;0.00;;;21.40;99.90;;;;;;25506849;23;20424;-72
2022/11/15 10:14:44;;;;;;;0.20;0.00;;;21.70;99.90;;;;;;25536259;23;20369;-74
2022/11/15 10:25:16;;;;;;;0.20;0.00;;;21.50;99.90;;;;;;25533142;23;20393;-70
2022/11/15 10:35:24;;;;;;;0.20;0.03;;;21.60;99.90;;;;;;25535060;23;20380;-73
2022/11/15 10:45:34;;;;;;;0.20;0.00;;;21.60;99.90;;;;;;25532946;23;20462;-73
2022/11/15 10:55:38;;;;;;;0.20;0.00;;;21.80;99.90;;;;;;25534898;23;20478;-73
2022/11/15 11:05:43;;;;;;;0.20;0.00;;;21.80;99.90;;;;;;25532768;23;20381;-73
2022/11/15 11:15:53;;;;;;;0.20;0.00;;;23.30;99.90;;;;;;25506231;23;20381;-74
2022/11/15 11:26:16;;;;;;;0.20;0.05;;;22.60;99.90;;;;;;25506620;23;20369;-71
2022/11/15 11:36:27;;;;;;;0.20;0.00;;;22.10;99.90;;;;;;25531474;23;20369;-72
2022/11/15 11:46:53;;;;;;;0.20;0.00;;;22.20;99.90;;;;;;25528465;23;20381;-71
2022/11/15 11:57:01;;;;;;;0.20;0.00;;;22.30;99.90;;;;;;25502315;23;20477;-72
2022/11/15 12:07:14;;;;;;;0.20;0.00;;;22.50;99.90;;;;;;25503663;23;20389;-73
2022/11/15 12:17:23;;;;;;;0.20;0.00;;;22.50;99.90;;;;;;25526139;23;20540;-74
2022/11/15 12:27:34;;;;;;;0.20;0.00;;;22.90;99.90;;;;;;25502984;23;20369;-72
2022/11/15 12:37:51;;;;;;;0.20;0.00;;;23.40;99.90;;;;;;25502233;23;20365;-75
2022/11/15 12:48:13;;;;;;;0.20;0.00;;;23.70;99.90;;;;;;25502569;23;20388;-72
2022/11/15 12:58:39;;;;;;;0.20;0.00;;;23.80;99.90;;;;;;25527443;23;21207;-71
2022/11/15 13:08:50;;;;;;;0.20;0.00;;;23.10;99.90;;;;;;25502841;23;20443;-72
2022/11/15 13:18:55;;;;;;;0.20;0.00;;;23.40;99.90;;;;;;25530225;23;20400;-72
2022/11/15 13:29:01;;;;;;;0.20;0.00;;;23.10;99.90;;;;;;25506028;23;20399;-71
2022/11/15 13:39:27;;;;;;;0.20;0.00;;;23.30;99.90;;;;;;25524479;23;20373;-75
2022/11/15 13:49:33;;;;;;;0.20;0.00;;;23.40;99.90;;;;;;25531324;23;20349;-73
2022/11/15 13:59:45;;;;;;;0.20;0.00;;;23.40;99.90;;;;;;25534168;23;20372;-70
2022/11/15 14:09:51;;;;;;;0.20;0.00;;;22.80;99.90;;;;;;25506604;23;20528;-75
2022/11/15 14:19:55;;;;;;;0.20;0.00;;;22.60;99.90;;;;;;25533280;23;20385;-73
2022/11/15 14:30:01;;;;;;;0.20;0.00;;;22.70;99.90;;;;;;25531880;23;20368;-74
2022/11/15 14:40:09;;;;;;;0.20;0.00;;;22.80;99.90;;;;;;25532632;23;20381;-73
2022/11/15 14:50:16;;;;;;;0.20;0.00;;;23.10;99.90;;;;;;25533728;23;20369;-75
2022/11/15 15:00:21;;;;;;;0.20;0.10;;;24.40;99.90;;;;;;25530684;23;20392;-72
2022/11/15 15:10:28;;;;;;;0.20;0.00;;;23.60;99.90;;;;;;25506835;23;20373;-73
2022/11/15 15:20:45;;;;;;;0.20;0.00;;;23.10;99.90;;;;;;25529298;23;20388;-73
2022/11/15 15:30:51;;;;;;;0.20;0.00;;;21.90;99.90;;;;;;25529319;23;20365;-73
2022/11/15 15:40:55;;;;;;;0.20;0.10;;;21.60;99.90;;;;;;25502771;23;20417;-72
2022/11/15 15:51:00;;;;;;;0.20;0.10;;;21.10;99.90;;;;;;25525713;23;20381;-72
2022/11/15 16:01:13;;;;;;;0.20;0.00;;;20.80;99.90;;;;;;25499195;23;20389;-77
2022/11/15 16:11:18;;;;;;;0.20;0.00;;;21.00;99.90;;;;;;25528458;23;20381;-76
2022/11/15 16:21:22;;;;;;;0.20;0.00;;;21.00;99.90;;;;;;25524763;23;20374;-76
2022/11/15 16:31:27;;;;;;;0.20;0.00;;;21.80;99.90;;;;;;25527197;23;20373;-75
2022/11/15 16:41:32;;;;;;;0.20;0.00;;;21.80;99.90;;;;;;25522322;23;20474;-76
2022/11/15 16:51:38;;;;;;;0.20;0.00;;;21.70;99.90;;;;;;25526793;23;20372;-76
2022/11/15 17:01:49;;;;;;;0.20;0.00;;;21.60;99.90;;;;;;25497663;23;20381;-74
2022/11/15 17:11:54;;;;;;;0.20;0.00;;;21.50;99.90;;;;;;25474585;23;20362;-73
2022/11/15 17:21:58;;;;;;;0.20;0.00;;;21.40;99.90;;;;;;25500663;23;20399;-74
2022/11/15 17:32:03;;;;;;;0.20;0.00;;;21.30;99.90;;;;;;25522446;23;20366;-75
2022/11/15 17:42:07;;;;;;;0.20;0.00;;;21.20;99.90;;;;;;25496741;23;20393;-73
2022/11/15 17:52:12;;;;;;;0.20;0.05;;;21.20;99.90;;;;;;25518720;23;20370;-73
2022/11/15 18:02:16;;;;;;;0.20;0.03;;;21.00;99.90;;;;;;25519640;23;20374;-71
2022/11/15 18:12:21;;;;;;;0.20;0.00;;;20.80;99.90;;;;;;25520175;23;20405;-71
2022/11/15 18:22:25;;;;;;;0.20;0.00;;;20.60;99.90;;;;;;25530555;23;20377;-72
2022/11/15 18:32:30;;;;;;;0.20;0.00;;;20.60;99.90;;;;;;25504619;23;20380;-69
2022/11/15 18:42:34;;;;;;;0.20;0.00;;;20.50;99.90;;;;;;25529264;23;20382;-72
2022/11/15 18:52:39;;;;;;;0.20;0.00;;;20.50;99.90;;;;;;25502472;23;20396;-73
2022/11/15 19:02:43;;;;;;;0.20;0.00;;;20.40;99.90;;;;;;25528575;23;20377;-71
2022/11/15 19:12:49;;;;;;;0.20;0.00;;;20.30;99.90;;;;;;25503767;23;20361;-72
2022/11/15 19:22:52;;;;;;;0.20;0.00;;;20.20;99.90;;;;;;25529211;23;20385;-71
2022/11/15 19:32:58;;;;;;;0.20;0.00;;;20.10;99.90;;;;;;25529883;23;20365;-70
2022/11/15 19:43:01;;;;;;;0.20;0.00;;;20.00;99.90;;;;;;25528589;23;20393;-70
2022/11/15 19:53:07;;;;;;;0.20;0.03;;;19.90;99.90;;;;;;25528566;23;20365;-71
2022/11/15 20:03:11;;;;;;;0.20;0.10;;;19.80;99.90;;;;;;25524703;23;20385;-71
2022/11/15 20:13:16;;;;;;;0.20;0.07;;;19.80;99.90;;;;;;25529775;23;20373;-69
2022/11/15 20:23:20;;;;;;;0.20;0.00;;;19.70;99.90;;;;;;25525950;23;20406;-69
2022/11/15 20:33:27;;;;;;;0.20;0.10;;;19.70;99.90;;;;;;25499776;23;20370;-70
2022/11/15 20:43:31;;;;;;;0.20;0.00;;;19.50;99.90;;;;;;25526080;23;20369;-71
2022/11/15 20:53:36;;;;;;;0.20;0.10;;;19.40;99.90;;;;;;25502878;23;20427;-71
2022/11/15 21:03:44;;;;;;;0.20;0.00;;;19.40;99.90;;;;;;25499819;23;20493;-72
2022/11/15 21:13:49;;;;;;;0.20;0.00;;;19.30;99.90;;;;;;25496491;23;20374;-70
2022/11/15 21:23:53;;;;;;;0.20;0.00;;;19.20;99.90;;;;;;25525609;23;20385;-71
2022/11/15 21:34:00;;;;;;;0.20;0.00;;;19.10;99.90;;;;;;25519271;23;20369;-72
2022/11/15 21:44:05;;;;;;;0.20;0.00;;;18.80;99.90;;;;;;25499255;23;20405;-70
2022/11/15 21:54:11;;;;;;;0.20;0.05;;;18.80;99.90;;;;;;25504736;23;20393;-72
2022/11/15 22:04:15;;;;;;;0.20;0.10;;;19.20;99.90;;;;;;25537950;23;20874;-71
2022/11/15 22:14:20;;;;;;;0.20;0.00;;;18.70;99.90;;;;;;25536932;23;20369;-71
2022/11/15 22:24:24;;;;;;;0.20;0.10;;;18.80;99.90;;;;;;25538211;23;20384;-72
2022/11/15 22:34:29;;;;;;;0.20;0.00;;;18.70;99.90;;;;;;25508417;23;20393;-71
2022/11/15 22:44:33;;;;;;;0.20;0.00;;;18.70;99.90;;;;;;25538565;23;20381;-72
2022/11/15 22:54:38;;;;;;;0.20;0.00;;;19.00;99.90;;;;;;25513573;23;20384;-72
2022/11/15 23:04:42;;;;;;;0.20;0.00;;;19.00;99.90;;;;;;25510149;23;20405;-73
2022/11/15 23:14:47;;;;;;;0.20;0.00;;;18.90;99.90;;;;;;25511296;23;20374;-72
2022/11/15 23:24:52;;;;;;;0.20;0.00;;;18.80;99.90;;;;;;25510272;23;20377;-72
2022/11/15 23:34:57;;;;;;;0.20;0.07;;;19.00;99.90;;;;;;25514070;23;20376;-70
2022/11/15 23:45:00;;;;;;;0.20;0.00;;;19.30;99.90;;;;;;25512646;23;20408;-71
2022/11/15 23:55:07;;;;;;;0.20;0.00;;;19.40;99.90;;;;;;25510757;23;20385;-70
